KBYG/BYG METAR and TAF weather

Enter ICAO airport designator
Station Type Date Time Source
KBYG METAR 2018/12/13 14:53 UTC NOAA

KBYG 131453Z AUTO 19012KT 10SM CLR M02/M15 A3009 RMK AO2 SLP212 T10221150 58006


Station Type Date Time Source
KBYG Decoded METAR 2018/12/13 14:53 UTC NOAA

BUFFALO JOHNSON COUNTY AIRPORT , WY, United States (KBYG) 44-23N 106-43W 1497M
Dec 13, 2018 - 09:53 AM EST / 2018.12.13 1453 UTC
Wind: from the S (190 degrees) at 14 MPH (12 KT):0
Visibility: 10 mile(s):0
Sky conditions: clear
Temperature: 28.0 F (-2.2 C)
Windchill: 17 F (-8 C):1
Dew Point: 5.0 F (-15.0 C)
Relative Humidity: 36%
Pressure (altimeter): 30.09 in. Hg (1018 hPa)
Pressure tendency: 0.02 inches (0.6 hPa) lower than three hours ago
ob: KBYG 131453Z AUTO 19012KT 10SM CLR M02/M15 A3009 RMK AO2 SLP212 T10221150 58006
cycle: 15

Station Type Date Time Source
KBYG TAF UTC NOAA

Error!


Example: see airport list